Time;durP1;ratioP1;P1;durP2;ratioP2;P2;SDS_P1;SDS_P2;PMS_P1;PMS_P2;Temp;Humidity;BMP_temperature;BMP_pressure;BME280_temperature;BME280_humidity;BME280_pressure;Samples;Min_cycle;Max_cycle;Signal;HPM_P1;HPM_P2
2023/01/25 04:48:20;;;;;;;35.60;18.90;;;;;;;-1.51;100.00;101994.50;5184505;28;20620;-89
2023/01/25 04:51:24;;;;;;;38.05;18.20;;;;;;;-1.42;100.00;101990.63;5369568;28;34596;-89
2023/01/25 04:54:30;;;;;;;31.95;16.73;;;;;;;-1.10;100.00;101991.12;5389202;28;33965;-89
2023/01/25 04:57:33;;;;;;;33.05;17.73;;;;;;;-0.97;100.00;101987.03;5327206;33;33628;-89
2023/01/25 05:00:37;;;;;;;34.13;16.65;;;;;;;-0.84;100.00;101993.53;5327870;33;33566;-89
2023/01/25 05:03:40;;;;;;;31.65;16.65;;;;;;;-0.79;100.00;101985.38;5327181;33;33577;-89
2023/01/25 05:06:44;;;;;;;33.22;16.30;;;;;;;-0.72;100.00;101993.00;5340115;28;33452;-89
2023/01/25 05:09:47;;;;;;;32.22;16.58;;;;;;;-0.50;100.00;101992.06;5327259;33;33337;-89
2023/01/25 05:12:50;;;;;;;31.58;15.02;;;;;;;-0.49;100.00;101989.37;5331718;33;33790;-89
2023/01/25 05:15:55;;;;;;;30.62;16.02;;;;;;;-0.38;100.00;101990.69;5363161;28;34306;-89
2023/01/25 05:18:59;;;;;;;28.05;15.88;;;;;;;-0.38;100.00;101991.56;5404279;28;34135;-90
2023/01/25 05:22:06;;;;;;;29.92;16.00;;;;;;;-0.31;100.00;101998.28;5354270;28;33789;-90
2023/01/25 05:26:59;;;;;;;31.52;16.05;;;;;;;-0.35;100.00;101991.44;5327005;33;33289;-89
2023/01/25 05:28:33;;;;;;;26.12;14.40;;;;;;;-0.40;100.00;101996.06;5327407;33;34403;-89
2023/01/25 05:31:36;;;;;;;30.90;15.57;;;;;;;-0.42;100.00;101999.69;5353684;28;33574;-89
2023/01/25 05:34:40;;;;;;;28.52;15.52;;;;;;;-0.35;100.00;102006.41;5327606;33;34209;-89
2023/01/25 05:37:44;;;;;;;26.85;13.80;;;;;;;-0.26;100.00;102006.03;5346084;28;34744;-89
2023/01/25 05:41:11;;;;;;;27.30;14.05;;;;;;;-0.29;100.00;102008.81;5371772;28;35328;31
2023/01/25 05:44:14;;;;;;;29.05;15.10;;;;;;;-0.32;100.00;102001.88;5290279;28;32982;-89
2023/01/25 05:47:18;;;;;;;28.27;15.25;;;;;;;-0.38;100.00;101994.22;5394226;28;33385;-90
2023/01/25 05:50:23;;;;;;;31.98;14.80;;;;;;;-0.37;100.00;101998.56;5359736;28;32595;-90
2023/01/25 05:53:27;;;;;;;25.08;13.80;;;;;;;-0.34;100.00;101992.28;5327125;33;33893;-90
2023/01/25 05:56:32;;;;;;;27.13;14.02;;;;;;;-0.34;100.00;101998.44;5339294;28;33204;-90
2023/01/25 05:59:37;;;;;;;24.98;13.25;;;;;;;-0.46;100.00;101998.97;5384671;28;33609;-90
2023/01/25 06:02:41;;;;;;;26.67;13.98;;;;;;;-0.46;100.00;101996.31;5374678;28;33693;-89
2023/01/25 06:05:45;;;;;;;25.08;13.23;;;;;;;-0.45;100.00;101995.38;5360816;28;33657;-89
2023/01/25 06:08:48;;;;;;;26.48;14.02;;;;;;;-0.37;100.00;101992.41;5373031;28;33326;-90
2023/01/25 06:11:51;;;;;;;30.05;15.05;;;;;;;-0.32;100.00;101999.22;5344498;28;34430;-87
2023/01/25 06:14:55;;;;;;;29.55;15.85;;;;;;;-0.34;100.00;102002.87;5341517;28;34888;-89
2023/01/25 06:17:58;;;;;;;26.15;14.05;;;;;;;-0.30;100.00;102010.59;5327357;33;33163;-89
2023/01/25 06:21:03;;;;;;;30.08;14.40;;;;;;;-0.35;100.00;102012.59;5327036;33;33211;-88
2023/01/25 06:24:10;;;;;;;26.45;13.73;;;;;;;-0.53;100.00;102018.66;5327771;33;33205;-89
2023/01/25 06:27:12;;;;;;;22.62;13.23;;;;;;;-0.51;100.00;102015.03;5328078;33;34407;-89
2023/01/25 06:30:16;;;;;;;28.38;13.13;;;;;;;-0.50;100.00;102018.53;5327537;33;33871;-88
2023/01/25 06:33:19;;;;;;;28.70;14.35;;;;;;;-0.53;100.00;102024.81;5327787;33;33724;-88
2023/01/25 06:36:23;;;;;;;31.08;14.98;;;;;;;-0.56;100.00;102021.44;5327750;33;33541;-88
2023/01/25 06:39:26;;;;;;;27.77;12.93;;;;;;;-0.67;100.00;102029.84;5327674;33;33471;-88
2023/01/25 06:42:29;;;;;;;25.25;13.80;;;;;;;-0.70;100.00;102024.69;5328357;33;33600;-89
2023/01/25 06:45:32;;;;;;;26.45;14.13;;;;;;;-0.69;100.00;102034.34;5328055;33;33451;-88
2023/01/25 06:48:35;;;;;;;28.08;14.50;;;;;;;-0.71;100.00;102031.75;5327579;33;34210;-88
2023/01/25 06:51:38;;;;;;;31.10;14.23;;;;;;;-0.79;100.00;102033.00;5327374;33;33768;-89
2023/01/25 06:54:41;;;;;;;25.42;13.32;;;;;;;-0.81;100.00;102025.12;5326673;33;34426;-88
2023/01/25 06:57:44;;;;;;;29.83;14.63;;;;;;;-0.77;100.00;102023.22;5327284;33;33546;-88
2023/01/25 07:00:47;;;;;;;29.50;15.10;;;;;;;-0.82;100.00;102020.78;5326546;33;33744;-88
2023/01/25 07:03:52;;;;;;;34.38;14.75;;;;;;;-0.74;100.00;102020.44;5316700;33;261767;-87
2023/01/25 07:06:55;;;;;;;32.45;14.77;;;;;;;-0.63;100.00;102025.28;5339393;28;33450;-88
2023/01/25 07:09:59;;;;;;;28.15;14.85;;;;;;;-0.54;100.00;102030.19;5370913;28;34456;-88
2023/01/25 07:13:02;;;;;;;28.73;14.77;;;;;;;-0.50;100.00;102027.34;5334574;33;33671;-88
2023/01/25 07:16:07;;;;;;;27.92;15.77;;;;;;;-0.27;100.00;102028.97;5327747;33;34531;-88
2023/01/25 07:19:14;;;;;;;31.70;15.60;;;;;;;-0.22;100.00;102027.94;5325548;33;33528;-88
2023/01/25 07:22:17;;;;;;;29.87;15.00;;;;;;;-0.15;100.00;102018.78;5324639;33;33658;-88
2023/01/25 07:25:20;;;;;;;31.23;15.13;;;;;;;0.08;100.00;102018.59;5318801;33;35035;-89
2023/01/25 07:32:01;;;;;;;29.67;14.82;;;;;;;0.42;100.00;102020.56;5290768;33;20128;-89
2023/01/25 07:35:36;;;;;;;29.70;15.27;;;;;;;0.30;100.00;102017.63;5343018;28;33409;-88
2023/01/25 07:38:39;;;;;;;32.17;15.52;;;;;;;0.33;100.00;102020.97;5346656;28;33522;-89
2023/01/25 07:41:42;;;;;;;30.33;14.90;;;;;;;0.41;100.00;102023.25;5342465;28;33660;-88
2023/01/25 07:44:45;;;;;;;28.67;15.48;;;;;;;0.57;100.00;102023.41;5388512;27;33154;-89
2023/01/25 07:47:49;;;;;;;30.35;14.70;;;;;;;0.63;100.00;102020.47;5381754;28;33303;-89
2023/01/25 07:54:19;;;;;;;27.30;14.30;;;;;;;0.65;100.00;102021.25;5387612;28;33554;-88
2023/01/25 07:57:22;;;;;;;26.95;14.75;;;;;;;0.87;100.00;102018.41;5360370;33;33499;-89
2023/01/25 08:00:27;;;;;;;26.10;14.10;;;;;;;0.95;100.00;102021.56;5398822;27;33702;-89
2023/01/25 08:03:31;;;;;;;28.67;14.60;;;;;;;0.90;100.00;102020.91;5371911;28;33430;-88
2023/01/25 08:06:37;;;;;;;29.90;16.12;;;;;;;1.00;100.00;102016.03;5351658;33;33538;-88
2023/01/25 08:09:41;;;;;;;29.50;15.00;;;;;;;0.97;100.00;102011.75;5387939;28;33455;-87
2023/01/25 08:12:45;;;;;;;29.92;15.05;;;;;;;1.09;100.00;102013.78;5389650;27;33441;-88
2023/01/25 08:15:55;;;;;;;30.83;15.75;;;;;;;1.13;100.00;102017.13;5345074;33;33942;-88
2023/01/25 08:18:59;;;;;;;34.13;15.77;;;;;;;1.24;100.00;102008.66;5355996;28;33264;-88
2023/01/25 08:22:03;;;;;;;32.00;16.62;;;;;;;1.46;100.00;102008.41;5338633;33;34334;-88
2023/01/25 08:25:07;;;;;;;35.15;16.25;;;;;;;1.50;100.00;102009.97;5345953;33;34807;-88
2023/01/25 08:28:11;;;;;;;28.55;15.50;;;;;;;1.62;100.00;102009.31;5351957;33;34308;-88
2023/01/25 08:31:22;;;;;;;34.67;15.48;;;;;;;1.52;100.00;102005.41;5349008;33;35031;-88
2023/01/25 08:34:25;;;;;;;26.55;15.13;;;;;;;1.27;100.00;102003.19;5358457;28;33858;-88
2023/01/25 08:37:28;;;;;;;28.85;14.70;;;;;;;1.43;100.00;102008.56;5332189;33;32821;-88
2023/01/25 08:40:31;;;;;;;27.42;15.60;;;;;;;1.64;100.00;102007.47;5343493;33;35596;-88
2023/01/25 08:43:39;;;;;;;31.08;15.63;;;;;;;2.01;100.00;101998.38;5333106;33;34100;-88
2023/01/25 08:46:41;;;;;;;29.08;16.37;;;;;;;2.23;100.00;101999.87;5331233;33;34821;-88
2023/01/25 08:49:44;;;;;;;29.15;15.52;;;;;;;2.36;100.00;101995.59;5327428;33;33613;-88
2023/01/25 08:52:48;;;;;;;27.02;15.25;;;;;;;2.57;100.00;101998.00;5327491;33;33459;-88
2023/01/25 08:55:50;;;;;;;26.12;15.52;;;;;;;2.53;100.00;101996.47;5331930;33;34060;-88
2023/01/25 08:58:53;;;;;;;31.73;16.62;;;;;;;2.53;100.00;101999.13;5343396;33;35352;-88
2023/01/25 09:01:56;;;;;;;30.92;16.27;;;;;;;2.61;100.00;101986.28;5345668;33;33553;-88
2023/01/25 09:04:59;;;;;;;30.35;15.35;;;;;;;2.60;100.00;101989.84;5331226;33;33331;-88
2023/01/25 09:08:04;;;;;;;29.70;17.45;;;;;;;2.60;100.00;101988.03;5333408;33;35007;-88
2023/01/25 09:11:19;;;;;;;32.05;19.45;;;;;;;2.76;100.00;101998.69;5335638;33;34951;-88
2023/01/25 09:18:14;;;;;;;39.10;20.40;;;;;;;2.77;100.00;101988.91;5405680;27;33252;-88
2023/01/25 09:21:17;;;;;;;31.70;16.42;;;;;;;2.53;100.00;101985.84;5359899;33;33228;-87
2023/01/25 09:24:20;;;;;;;31.48;16.10;;;;;;;2.63;100.00;101987.00;5360916;33;33604;-87
2023/01/25 09:27:23;;;;;;;32.08;17.02;;;;;;;2.76;100.00;101992.50;5363207;33;34172;-87
2023/01/25 09:30:27;;;;;;;31.23;16.52;;;;;;;2.76;100.00;101980.06;5348111;33;33677;-88
2023/01/25 09:33:51;;;;;;;32.75;15.65;;;;;;;2.82;100.00;101987.69;5377379;28;34822;-88
2023/01/25 09:36:54;;;;;;;29.90;15.00;;;;;;;2.72;100.00;101983.84;5350201;33;34835;-87
2023/01/25 09:39:57;;;;;;;28.35;15.20;;;;;;;2.67;100.00;101988.56;5361771;33;33609;-87
2023/01/25 09:43:29;;;;;;;29.60;16.35;;;;;;;2.79;100.00;101985.22;5340036;33;34417;-87
2023/01/25 09:46:51;;;;;;;28.70;14.63;;;;;;;2.82;100.00;101981.53;5352264;33;34389;-87
2023/01/25 09:50:00;;;;;;;27.70;15.63;;;;;;;2.76;100.00;101973.91;5350872;33;34448;-87
2023/01/25 09:53:06;;;;;;;27.48;14.95;;;;;;;2.85;100.00;101974.22;5349789;33;33655;-87
2023/01/25 09:56:23;;;;;;;29.00;15.45;;;;;;;2.97;100.00;101963.81;5345748;33;33775;-87
2023/01/25 09:59:29;;;;;;;28.12;15.65;;;;;;;2.99;100.00;101957.47;5360473;33;34901;-87
2023/01/25 10:02:44;;;;;;;26.70;14.63;;;;;;;3.16;100.00;101957.31;5359525;33;35207;-87
2023/01/25 10:05:50;;;;;;;30.83;15.80;;;;;;;3.21;100.00;101951.72;5355295;33;33784;-87
2023/01/25 10:09:14;;;;;;;24.40;13.70;;;;;;;3.17;100.00;101947.53;5352586;33;33912;-87
2023/01/25 10:12:23;;;;;;;26.30;14.20;;;;;;;3.38;100.00;101932.06;5351955;33;33551;-87
2023/01/25 10:15:35;;;;;;;25.05;14.45;;;;;;;3.28;100.00;101933.59;5345586;33;33616;-87
2023/01/25 10:18:54;;;;;;;24.33;13.35;;;;;;;3.39;100.00;101932.00;5355117;33;33922;-87
2023/01/25 10:22:09;;;;;;;21.02;12.52;;;;;;;3.22;100.00;101925.94;5360252;33;33461;-89
2023/01/25 10:25:23;;;;;;;22.33;12.48;;;;;;;3.01;100.00;101915.63;5351365;33;34079;-88
2023/01/25 10:28:36;;;;;;;22.45;13.07;;;;;;;3.29;100.00;101919.31;5352903;33;33650;-88
2023/01/25 10:31:52;;;;;;;22.95;13.48;;;;;;;3.37;100.00;101909.06;5352482;33;34050;-87
2023/01/25 10:34:57;;;;;;;24.65;13.25;;;;;;;3.48;100.00;101911.94;5358841;33;33818;-88
2023/01/25 10:38:15;;;;;;;22.42;13.00;;;;;;;3.64;100.00;101898.53;5350037;33;33440;-88
2023/01/25 10:41:27;;;;;;;22.85;11.65;;;;;;;3.67;100.00;101892.16;5348022;33;33675;-87
2023/01/25 10:44:30;;;;;;;26.75;14.25;;;;;;;3.72;100.00;101893.56;5345323;33;34341;-88
2023/01/25 10:47:36;;;;;;;26.70;13.85;;;;;;;3.94;100.00;101892.22;5352224;33;33357;-88
2023/01/25 10:50:45;;;;;;;24.12;13.18;;;;;;;4.13;100.00;101889.25;5349245;33;33207;-87
2023/01/25 10:54:00;;;;;;;24.00;13.13;;;;;;;4.12;100.00;101885.69;5360699;33;33161;-88
2023/01/25 10:57:07;;;;;;;29.65;14.85;;;;;;;4.21;100.00;101876.25;5347677;33;33102;-88
2023/01/25 11:00:36;;;;;;;23.95;13.45;;;;;;;4.20;100.00;101878.06;5349322;33;33807;-88
2023/01/25 11:03:43;;;;;;;26.02;13.45;;;;;;;4.18;100.00;101877.28;5364337;33;34963;-91
2023/01/25 11:06:50;;;;;;;23.42;12.95;;;;;;;3.95;100.00;101867.25;5345518;33;33731;-88
2023/01/25 11:09:53;;;;;;;18.80;11.25;;;;;;;3.97;100.00;101862.69;5357567;33;34170;-88
2023/01/25 11:13:14;;;;;;;21.50;12.15;;;;;;;3.92;100.00;101859.47;5350494;33;33036;-88
2023/01/25 11:16:29;;;;;;;23.42;12.32;;;;;;;4.22;100.00;101854.00;5335943;33;33502;-87
2023/01/25 11:19:39;;;;;;;23.52;14.05;;;;;;;4.23;100.00;101855.69;5345971;33;33940;-88
2023/01/25 11:22:50;;;;;;;19.60;11.07;;;;;;;4.02;100.00;101849.94;5349488;33;33151;-88
2023/01/25 11:25:53;;;;;;;21.77;11.50;;;;;;;4.03;100.00;101846.31;5349434;33;34126;-87
2023/01/25 11:29:24;;;;;;;20.65;11.80;;;;;;;4.16;100.00;101835.72;5351722;33;34304;-87
2023/01/25 11:32:28;;;;;;;19.98;11.48;;;;;;;4.16;100.00;101833.06;5344049;33;33904;-88
2023/01/25 11:35:33;;;;;;;20.70;12.25;;;;;;;4.27;100.00;101820.75;5343266;33;32861;-87
2023/01/25 11:38:43;;;;;;;24.30;12.37;;;;;;;4.30;100.00;101814.34;5349706;33;33617;-87
2023/01/25 11:41:55;;;;;;;22.27;12.47;;;;;;;4.47;100.00;101810.53;5348722;33;33543;-88
2023/01/25 11:45:07;;;;;;;22.35;11.82;;;;;;;4.54;100.00;101802.03;5366392;28;32856;-87
2023/01/25 11:48:42;;;;;;;22.83;12.55;;;;;;;4.64;100.00;101793.41;5349347;33;33586;-87
2023/01/25 11:51:51;;;;;;;20.70;12.40;;;;;;;4.51;100.00;101785.38;5346989;33;34013;-87
2023/01/25 11:55:24;;;;;;;22.33;12.30;;;;;;;4.39;100.00;101780.84;5340126;33;34730;-87
2023/01/25 11:59:03;;;;;;;19.67;11.38;;;;;;;4.11;100.00;101765.87;5336765;33;34311;-87
2023/01/25 12:02:31;;;;;;;21.20;11.40;;;;;;;4.36;100.00;101755.28;5350094;28;33455;-87
2023/01/25 12:05:48;;;;;;;24.12;11.12;;;;;;;4.40;100.00;101755.94;5341874;33;33866;-87
2023/01/25 12:09:05;;;;;;;21.25;12.60;;;;;;;4.52;100.00;101749.75;5354103;33;33554;-87
2023/01/25 12:12:08;;;;;;;20.50;10.77;;;;;;;4.26;100.00;101752.37;5391984;27;34177;-86
2023/01/25 12:15:18;;;;;;;21.92;11.70;;;;;;;4.20;100.00;101747.44;5368686;33;34980;-86
2023/01/25 12:18:49;;;;;;;22.95;12.37;;;;;;;4.12;100.00;101743.59;5344644;33;34092;-90
2023/01/25 12:22:11;;;;;;;21.62;10.98;;;;;;;4.17;100.00;101737.00;5345210;33;33248;-86
2023/01/25 12:25:33;;;;;;;20.98;11.88;;;;;;;3.97;100.00;101737.47;5329245;33;33973;-87
2023/01/25 12:28:53;;;;;;;19.87;11.18;;;;;;;3.82;100.00;101729.53;5328435;33;33441;-87
2023/01/25 12:32:15;;;;;;;23.73;12.60;;;;;;;3.87;100.00;101731.91;5337946;33;34018;-89
2023/01/25 12:35:33;;;;;;;25.70;12.30;;;;;;;3.95;100.00;101729.59;5335531;33;33451;-89
2023/01/25 12:38:43;;;;;;;22.77;12.93;;;;;;;3.99;100.00;101724.91;5363430;33;33579;-89
2023/01/25 12:42:10;;;;;;;22.98;12.85;;;;;;;4.07;100.00;101727.94;5353208;33;33972;-89
2023/01/25 12:45:21;;;;;;;24.42;13.18;;;;;;;3.90;100.00;101730.84;5361639;33;35279;-92
2023/01/25 12:48:28;;;;;;;24.50;14.00;;;;;;;3.90;100.00;101717.53;5356705;33;33317;-89
2023/01/25 12:51:38;;;;;;;24.67;14.00;;;;;;;3.80;100.00;101710.16;5359329;33;34185;-89
2023/01/25 12:54:54;;;;;;;25.83;14.18;;;;;;;3.87;100.00;101708.78;5356211;28;34079;-87
2023/01/25 12:58:10;;;;;;;22.83;13.27;;;;;;;4.05;100.00;101706.69;5353652;33;33743;-87
2023/01/25 13:01:40;;;;;;;24.12;13.05;;;;;;;3.97;100.00;101703.69;5426896;28;34220;-88
2023/01/25 13:04:45;;;;;;;26.52;14.87;;;;;;;3.96;100.00;101695.81;5383494;27;33378;-87
2023/01/25 13:08:14;;;;;;;27.17;13.65;;;;;;;4.04;100.00;101691.66;5349001;33;35703;-87
2023/01/25 13:11:36;;;;;;;24.50;13.73;;;;;;;4.00;100.00;101687.50;5375285;28;32986;-87
2023/01/25 13:14:40;;;;;;;25.20;13.85;;;;;;;3.95;100.00;101680.75;5360814;33;33348;-88
2023/01/25 13:17:43;;;;;;;25.70;11.68;;;;;;;4.02;100.00;101680.25;5367467;33;35142;-87
2023/01/25 13:20:48;;;;;;;23.77;12.77;;;;;;;4.07;100.00;101685.28;5345679;33;33927;-87
2023/01/25 13:24:16;;;;;;;24.58;13.43;;;;;;;4.14;100.00;101680.38;5345216;33;33733;-88
2023/01/25 13:27:25;;;;;;;28.15;13.82;;;;;;;4.03;100.00;101681.09;5352548;33;33769;-88
2023/01/25 13:30:49;;;;;;;;;;;;;;;3.98;100.00;101675.22;5372826;28;34961;-89
2023/01/25 13:33:52;;;;;;;22.62;12.05;;;;;;;4.09;100.00;101672.69;5390070;28;33204;-88
2023/01/25 13:36:56;;;;;;;27.50;13.35;;;;;;;4.01;100.00;101665.22;5350324;33;34411;-88
2023/01/25 13:40:36;;;;;;;26.45;13.73;;;;;;;4.08;100.00;101668.31;5382781;27;33774;-89
2023/01/25 13:43:41;;;;;;;25.77;13.57;;;;;;;4.31;100.00;101662.28;5340889;33;33379;-88
2023/01/25 13:46:44;;;;;;;24.90;13.32;;;;;;;4.40;100.00;101662.59;5357125;33;34083;-88
2023/01/25 13:49:55;;;;;;;24.67;14.20;;;;;;;4.21;100.00;101661.22;5356613;33;34149;-88
2023/01/25 13:53:04;;;;;;;26.52;14.02;;;;;;;4.13;100.00;101660.87;5355720;33;33497;-88
2023/01/25 13:56:25;;;;;;;25.85;14.48;;;;;;;4.02;100.00;101658.09;5359394;33;33668;-88
2023/01/25 13:59:28;;;;;;;26.80;13.50;;;;;;;4.09;100.00;101657.59;5352141;33;33092;-88
2023/01/25 14:02:34;;;;;;;27.37;14.73;;;;;;;4.12;100.00;101653.81;5364606;27;33485;-88
2023/01/25 14:05:37;;;;;;;25.27;13.77;;;;;;;4.08;100.00;101657.66;5359529;33;34537;-88
2023/01/25 14:08:42;;;;;;;25.77;14.20;;;;;;;4.12;100.00;101653.81;5350396;33;34330;-88
2023/01/25 14:11:55;;;;;;;23.90;14.30;;;;;;;4.18;100.00;101650.72;5350411;33;34780;-89
2023/01/25 14:15:20;;;;;;;23.33;12.95;;;;;;;4.22;100.00;101646.91;5356110;33;34247;-89
2023/01/25 14:18:31;;;;;;;24.85;14.75;;;;;;;4.18;100.00;101645.41;5345934;33;33503;-89
2023/01/25 14:21:33;;;;;;;25.85;13.50;;;;;;;4.11;100.00;101651.28;5349490;33;33890;-88
2023/01/25 14:24:36;;;;;;;30.30;15.00;;;;;;;3.98;100.00;101644.13;5350674;33;33422;-88
2023/01/25 14:27:45;;;;;;;25.40;14.75;;;;;;;3.92;100.00;101643.66;5358295;33;33951;-89
2023/01/25 14:30:54;;;;;;;24.58;13.57;;;;;;;3.96;100.00;101642.53;5355276;33;34189;-89
2023/01/25 14:33:57;;;;;;;23.73;13.48;;;;;;;3.90;100.00;101645.59;5346533;33;33707;-88
2023/01/25 14:37:15;;;;;;;28.23;14.77;;;;;;;3.96;100.00;101642.53;5350248;33;34138;-90
2023/01/25 14:40:23;;;;;;;25.92;14.70;;;;;;;3.96;100.00;101642.53;5357883;33;32224;-87
2023/01/25 14:43:27;;;;;;;27.60;13.38;;;;;;;3.84;100.00;101647.72;5352322;33;33464;-89
2023/01/25 14:46:32;;;;;;;23.85;13.57;;;;;;;3.69;100.00;101645.25;5351131;33;34213;-89
2023/01/25 14:49:35;;;;;;;27.52;13.38;;;;;;;3.58;100.00;101636.13;5343950;33;32053;-88
2023/01/25 14:52:39;;;;;;;26.85;13.00;;;;;;;3.58;100.00;101636.13;5342262;33;33958;-90
2023/01/25 14:55:45;;;;;;;30.65;14.07;;;;;;;3.52;100.00;101638.34;5346471;33;33570;-89
2023/01/25 14:58:47;;;;;;;26.42;13.07;;;;;;;3.41;100.00;101631.91;5338403;33;33682;-88
2023/01/25 15:02:32;;;;;;;22.37;12.68;;;;;;;3.29;100.00;101634.53;5349753;33;32571;-89
2023/01/25 15:05:45;;;;;;;26.02;12.65;;;;;;;3.31;100.00;101630.81;5344923;33;34086;-87
2023/01/25 15:08:48;;;;;;;24.02;12.57;;;;;;;3.34;100.00;101629.78;5347670;33;34933;-91
2023/01/25 15:12:02;;;;;;;25.37;12.52;;;;;;;3.26;100.00;101626.75;5350494;33;33869;-90
2023/01/25 15:15:19;;;;;;;22.37;11.93;;;;;;;3.02;100.00;101623.87;5346017;33;34318;-89
2023/01/25 15:18:52;;;;;;;21.17;11.77;;;;;;;3.12;100.00;101623.16;5397547;28;32204;-89
2023/01/25 15:21:58;;;;;;;21.45;12.18;;;;;;;3.09;100.00;101625.19;5350446;33;33912;-89
2023/01/25 15:25:00;;;;;;;24.70;12.68;;;;;;;3.20;100.00;101627.16;5346492;33;33962;-90
2023/01/25 15:28:13;;;;;;;22.45;11.02;;;;;;;3.09;100.00;101622.50;5356786;33;33614;-90
2023/01/25 15:31:20;;;;;;;23.48;12.20;;;;;;;3.18;100.00;101627.25;5351551;33;33914;-90
2023/01/25 15:34:31;;;;;;;23.90;11.98;;;;;;;3.08;100.00;101628.81;5354754;33;33257;-89
2023/01/25 15:37:34;;;;;;;24.10;12.05;;;;;;;3.12;100.00;101625.81;5353027;33;34479;-88
2023/01/25 15:40:42;;;;;;;23.12;11.85;;;;;;;3.06;100.00;101615.59;5359570;33;33518;-89
2023/01/25 15:43:46;;;;;;;22.95;12.13;;;;;;;3.09;100.00;101618.03;5362286;33;34062;-89
2023/01/25 15:46:50;;;;;;;27.30;12.50;;;;;;;3.04;100.00;101620.16;5357471;33;33241;-89
2023/01/25 15:49:53;;;;;;;23.45;11.20;;;;;;;2.99;100.00;101616.09;5347158;33;33432;-89
2023/01/25 15:52:56;;;;;;;20.77;10.25;;;;;;;2.99;100.00;101616.09;5352306;33;33424;-88
2023/01/25 15:56:02;;;;;;;23.98;12.07;;;;;;;2.95;100.00;101626.06;5348790;33;35330;-89
2023/01/25 15:59:07;;;;;;;24.80;11.18;;;;;;;2.89;100.00;101621.97;5351460;33;33287;-89
2023/01/25 16:02:12;;;;;;;21.77;11.10;;;;;;;2.87;100.00;101612.41;5345487;33;33892;-89
2023/01/25 16:05:15;;;;;;;21.42;10.63;;;;;;;2.84;100.00;101617.94;5334588;33;32395;-88
2023/01/25 16:08:19;;;;;;;21.48;10.88;;;;;;;2.87;100.00;101620.37;5345780;33;33649;-88
2023/01/25 16:11:23;;;;;;;25.35;11.35;;;;;;;2.86;100.00;101610.69;5338690;33;34365;-89
2023/01/25 16:14:30;;;;;;;24.52;11.57;;;;;;;2.94;100.00;101609.25;5344226;33;34976;-88
2023/01/25 16:17:33;;;;;;;22.67;11.38;;;;;;;2.87;100.00;101605.28;5332721;33;35073;-91
2023/01/25 16:20:36;;;;;;;24.00;10.93;;;;;;;2.84;100.00;101610.81;5341461;33;34340;-89
2023/01/25 16:23:41;;;;;;;27.75;11.18;;;;;;;2.85;100.00;101606.31;5344054;33;32146;-89
2023/01/25 16:26:54;;;;;;;22.23;10.65;;;;;;;2.79;100.00;101598.75;5341395;33;34219;-89
2023/01/25 16:29:57;;;;;;;21.70;11.57;;;;;;;2.74;100.00;101604.34;5341665;33;33948;-89
2023/01/25 16:33:01;;;;;;;21.30;11.18;;;;;;;2.66;100.00;101601.31;5340974;33;33224;-88
2023/01/25 16:36:16;;;;;;;22.08;11.52;;;;;;;2.63;100.00;101602.38;5342107;33;33852;-89
2023/01/25 16:39:21;;;;;;;22.67;11.40;;;;;;;2.59;100.00;101598.19;5342889;33;33674;-89
2023/01/25 16:42:24;;;;;;;25.80;10.82;;;;;;;2.70;100.00;101603.69;5352862;33;34166;-89
2023/01/25 16:45:29;;;;;;;22.55;11.48;;;;;;;2.75;100.00;101594.56;5350426;33;33816;-89
2023/01/25 16:48:33;;;;;;;24.02;11.77;;;;;;;2.66;100.00;101599.53;5339751;33;33058;-89
2023/01/25 16:51:36;;;;;;;21.95;11.65;;;;;;;2.67;100.00;101600.38;5341738;33;34065;-89
